EDDF 150550Z 13004KT 080V160 9000 OVC005 06/05 Q1028 TEMPO OVC004=
EDDH 150550Z 14003KT 110V180 9000 1800NW R15/0700V1000U BCFG NSC 05/04 Q1027 NOSIG=
EDDT 150550Z 10005KT CAVOK 07/06 Q1029 NOSIG=
EETN 150550Z 20005KT 9999 OVC019 06/05 Q1028 R08/290195 NOSIG=
EFHK 150550Z 19006KT 9999 BKN018 06/05 Q1027 NOSIG=
EPWA 150600Z 30004KT 9999 FEW041 06/05 Q1031 NOSIG=
EVRA 150550Z 21002KT 9999 FEW024 OVC036 07/07 Q1030 R36/290195 NOSIG=
EYVI 150550Z 01007KT 9999 BKN005 BKN043 05/05 Q1029 R01/2///95 NOSIG=
HECA 150600Z 27005KT 2000 BR NSC 19/14 Q1014 NOSIG=
HEGN 150500Z 31010KT 9999 FEW020 19/07 Q1010 NOSIG=
HESH 150500Z 24004KT 9999 FEW020 BKN025 19/08 Q1011 NOSIG=
LBBG 150600Z 36011KT 9999 -RA FEW036 08/06 Q1022 NOSIG=
LBSF 150600Z 29005KT 260V320 8000 SCT034 BKN041 07/02 Q1024 NOSIG=
LCLK 150600Z 34006KT CAVOK 16/04 Q1014 NOSIG=
LCPH 150600Z 04007KT 9999 FEW020 16/07 Q1012=
LEBL 150600Z 33008KT 9999 SCT009 BKN011 FEW015CB 16/14 Q1019 TEMPO 4000 TSRA=
LGTS 150550Z 35012KT 9999 FEW025 13/03 Q1022 NOSIG=
LHBP 150600Z VRB03KT CAVOK 02/01 Q1030 NOSIG=
LIRA 150550Z VRB02KT 7000 FEW015 09/07 Q1023=
LKPR 150600Z VRB02KT 7000 NSC 02/01 Q1029 NOSIG=
LLBG 150550Z 14004KT 9999 FEW040 18/14 Q1012 NOSIG=
LOWW 150550Z VRB01KT CAVOK 01/00 Q1030 NOSIG=
LTAC 150550Z 32004KT 270V350 CAVOK M04/M07 Q1018 NOSIG=
LTAI 150550Z 35010KT CAVOK 14/M03 Q1014 NOSIG=
LTAJ 150550Z 36008KT CAVOK 07/M03 Q1014 NOSIG=
LTAY 150550Z 12008KT CAVOK 03/M02 Q1017=
LTAZ 150550Z 12004KT 9999 SCT040 M02/M05 Q1019=
LTBA 150550Z VRB02KT 6000 -RA BKN028 10/07 Q1020 NOSIG=
LTBR 150550Z 08002KT 9999 SCT035 BKN100 07/05 Q1019 NOSIG=
LTBS 150550Z 07008KT 030V100 CAVOK 12/M01 Q1013 NOSIG=
LTBU 150550Z 31005KT 6000 -RA FEW018 BKN036 08/06 Q1020=
LTCE 150550Z 00000KT 9999 BKN020 BKN070 M01/M02 Q1014 RESN NOSIG=
LTFE 150550Z 36003KT 280V050 CAVOK 11/00 Q1015 NOSIG=
LTFH 150550Z 19003KT 9999 SCT036 BKN100 10/03 Q1019 NOSIG=
LUKK 150600Z 03007KT 1300 R08/1800N -RA BR OVC002 02/01 Q1024 R08/290199 TEMPO 0600 FG=
LYBE 150600Z 26006KT 5000 BR SCT040 02/01 Q1029 TEMPO 4000=
OIII 150600Z 05006KT 8000 -RA FEW030CB SCT035 OVC080 08/04 Q1023 A3021 NOSIG=
OIMM 150600Z 00000KT 9999 FEW040 SCT100 06/M01 Q1025 A3027=
OLBA 150600Z 13005KT 9999 BKN070 19/11 Q1013 NOSIG=
OMDB 150600Z 20004KT 150V250 CAVOK 28/16 Q1016 NOSIG=
OSDI 150600Z 24004KT 0600FG 09/08 Q1014=
UAAA 150600Z VRB01MPS 2800 BR FU NSC M10/M12 Q1034 R88/91//50 NOSIG=
UAAH 150600Z 06005MPS CAVOK M09/M13 Q1038 NOSIG RMK QFE741/0988=
UAAT 150600Z VRB01MPS 9999 NSC M12/M17 Q1035 R02/950250 NOSIG RMK QFE724/0965=
UACC 150600Z 24005MPS 9999 FEW020 SCT230 M09/M10 Q1038 R22/15//65 NOSIG RMK QFE746/0995=
UACK 150600Z 27008MPS CAVOK M03/M12 Q1033 R20/950060 NOSIG RMK QFE751/1001=
UACP 150600Z 26006MPS CAVOK M05/M13 Q1032 R23/0/0060 NOSIG RMK QFE761/1015=
UADD 150600Z 00000MPS 5000 BR NSC M05/M09 Q1033 R13/790342 NOSIG RMK QFE717/0956=
UAII 150600Z VRB01MPS 5000 FU NSC 07/M01 Q1031 R28/0///70 NOSIG RMK QFE735/0980=
UAKD 150600Z 08002MPS 9999 NSC M07/M11 Q1040 R04/0///65 NOSIG RMK QFE745/0994=
UAKK 150600Z 25004MPS CAVOK M09/M12 Q1038 R23/920555 NOSIG RMK QFE730/0974=
UAOO 150600Z 07009MPS CAVOK M05/M17 Q1036 R05/CLRD70 NOSIG RMK QFE765/1021=
UARR 150600Z 01002MPS CAVOK M07/M11 Q1041 R04/CLRD70 NOSIG RMK QFE777/1036=
UASK 150600Z 00000MPS 7000 NSC M11/M12 Q1040 R12/810150 NOSIG RMK QFE754/1006=
UASP 150600Z 24007MPS CAVOK M04/M08 Q1034 R21/0///60 NOSIG RMK QFE764/1018=
UASS 150600Z 13004MPS CAVOK M09/M14 Q1039 NOSIG RMK QFE761/1014=
UATE 150600Z 10010G15MPS CAVOK 01/M16 Q1029 R12/0///70 NOSIG RMK QFE770/1026=
UATG 150600Z 09005MPS CAVOK M05/M13 Q1037 R14/CLRD70 NOSIG RMK QFE779/1039=
UATT 150600Z 00000MPS CAVOK M09/M13 Q1039 R31/0///60 NOSIG RMK QFE759/1012=
UAUU 150600Z 20002MPS 170V240 CAVOK M06/M12 Q1037 R33/CLRD60 NOSIG RMK QFE762/1016=
UBBB 150600Z 10009KT 9999 SCT029 BKN100 12/07 Q1022 R88/CLRD// NOSIG=
UBBG 150600Z 10004KT 1200 R12/1200 BR OVC002 06/06 Q1020 R12/190065 NOSIG=
UBBL 150600Z 33005KT 9999 OVC013 09/09 Q1022 R33/CLRD// NOSIG RMK MT OP=
UBBN 150600Z 13010KT 9999 FEW050CB BKN100 08/01 Q1015 R14R/CLRD// NOSIG RMK MT OP QFE686=
UBBQ 150600Z 00000KT 9999 BKN016 OVC040 08/06 Q1021 R16/////// NOSIG RMK MT OBSC=
UBBY 150600Z VRB02KT 3200 -RA BR SCT002 OVC017 06/06 Q1024 R33/290060 NOSIG RMK MT OBSC=
UBEE 150600Z 13007KT 8000 SCT005 OVC020 08/07 Q1022 R30/190065 NOSIG=
UCFL 150600Z VRB01MPS 9999 NSC 01/M09 Q1026 R07/CLRD70=
UCFM 150600Z VRB01MPS 0900 0800W R08/0800N PRFG FU BKN003 M13/M15 Q1034 R08/CLRD70 NOSIG=
UCFO 150600Z 10002MPS 020V140 5000 FU NSC 07/02 Q1030 R12/19//65 NOSIG=
UDSG 150600Z 06009KT 9000 FEW033CB OVC040 04/M02 Q1013 R02/19//60 NOSIG=
UDYZ 150600Z 12007KT 9999 SCT046 10/03 Q1014 R0 CHECK TEXT NEW ENDING ADDED UDDDYFYX=
UEEE 150600Z 22002MPS CAVOK M19/M22 Q1023 R23L/490245 NOSIG RMK QFE758=
UGKO 150600Z 26006KT 9999 -RA SCT030 OVC045 09/08 Q1017 R07/2///50 NOSIG=
UGSB 150600Z 14012KT 9999 -RA OVC031 08/06 Q1018 R13/2///55 NOSIG=
UGTB 150600Z 23002KT 7000 -RA BKN007 OVC024 05/04 Q1023 R31L/290055 NOSIG=
UHHH 150600Z VRB01MPS CAVOK 02/M04 Q1020 R23L/090060 NOSIG RMK QFE758/1011=
UHMA 150600Z 01006MPS 9999 VCFG NSC M24/M27 Q1025 R88/750542 TEMPO 2000 BR RMK END R01/36006G09MPS QFE765/1020=
UHMM 150600Z 07002MPS 9999 OVC023 M03/M05 Q1021 R10/420232 NOSIG RMK MT OBSC QFE751=
UHPP 150600Z 20003MPS 9999 SCT043CB 02/M02 Q1011 WS R34L R34L/CLRD70 NOSIG RMK MT OBSC QFE755/1007=
UHSS 150600Z 30005MPS 9999 FEW040CB 05/00 Q1019 R01/CLRD70 NOSIG RMK QFE763/1017=
UHWW 150600Z 09003MPS 9999 NSC 07/M02 Q1021 R25L/0///70 NOSIG RMK QFE765=
UIAA 150600Z 28007MPS 9999 FEW043CB M08/M17 Q1022 R29/420150 NOSIG RMK QFE707/0943=
UIBB 150600Z 24005MPS 200V270 9999 -SHSN BKN032CB M06/M10 Q1017 R30/450545 NOSIG RMK QFE719/0959=
UIII 150600Z 09002MPS CAVOK M07/M13 Q1025 R12/820350 NOSIG RMK QFE726/0968=
UIUU 150600Z 23004MPS 180V270 9999 SCT031CB M10/M18 Q1028 R26/450555 NOSIG RMK QFE726/0968=
UKBB 150600Z 15003MPS 1800 -FZDZ BR OVC003 M01/M01 Q1026 R18L/821036 R18R/851030 TEMPO 0400 FZFG BKN001=
UKDD 150600Z 07008MPS 9999 SCT030 00/M05 Q1025 R08/090070 NOSIG=
UKDE 150600Z 05007MPS 020V100 CAVOK 01/M06 Q1024 R02R/CLRD70 NOSIG=
UKDR 150600Z 05005MPS 9999 OVC036 01/M01 Q1024 R18/19//60 NOSIG=
UKHH 150600Z 10006MPS CAVOK M01/M09 Q1029 R07/0///72 NOSIG=
UKKK 150600Z 12002MPS 0600 0550E R08/0900U FZFG VV002 M00/M00 Q1025 R08/810245 TEMPO 0300 -FZRA FZFG OVC001=
UKKM 150600Z 10002MPS 0250 R15/0250N FG VV001 00/00 Q1025=
UKLI 150600Z 32002MPS 270V350 9999 SCT030CB BKN043 06/06 Q1027 R28/290065 NOSIG=
UKLL 150600Z 35002MPS 9999 -SHRA BKN011 BKN030CB 06/05 Q1028 R31/290055 NOSIG=
UKLN 150600Z 31003MPS 270V340 9999 SCT///CB 06/06 Q1026 R33/290160 NOSIG=
UKLR 150600Z 33003MPS 9999 -SHRA BKN013CB 05/05 Q1026 NOSIG=
UKLU 150600Z 00000MPS 9999 BKN046 05/04 Q1028 NOSIG=
UKOH 150600Z 04004MPS 6000 -DZ OVC006 02/M00 Q1023 R03/190060 NOSIG=
UKON 150600Z 04004MPS 7000 -SHSN BKN018 BKN///CB 01/M00 Q1023 NOSIG=
UKOO 150600Z 36003MPS 4800 BR BKN005 OVC017 00/00 Q1023 R34/290050 NOSIG=
UKWW 150600Z 05003MPS 9000 OVC008 05/04 Q1024 NOSIG=
ULAA 150600Z 18002MPS 140V210 3300 BR OVC003 01/01 Q1026 R08/510355 NOSIG RMK QBB090 QFE768/1025=
ULLI 150600Z 23002MPS 9999 OVC029 05/04 Q1029 R88/290050 NOSIG=
ULMM 150600Z 12002MPS 9999 BKN014 01/M01 Q1015 R13/190055 NOSIG RMK QFE754=
ULOO 150600Z 15001MPS 1600 0500S R19/1600U PRFG BR OVC002 04/04 Q1030 R19/290055 NOSIG RMK QBB080 OBST OBSC QFE768=
ULPB 150600Z 23003MPS 0700 0500E R19/0700N FG VV000 01/01 Q1028 R19/290055 NOSIG RMK QBB010 OBST OBSC QFE767/1023=
ULWC 150600Z 21002MPS 9000 SCT033 M01/M02 Q1031 R21/990532 NOSIG RMK QFE763/1018=
UMBB 150600Z 34004MPS 5000 BR OVC009CB 07/06 Q1029 R29/290050 NOSIG=
UMGG 150600Z 10004MPS 2100 BR OVC003 M00/M01 Q1027 R10/650325 TEMPO 1400 RMK QBB090=
UMII 150600Z 03002MPS 6000 FEW010 BKN100 M03/M04 Q1029 TEMPO 2000 BR BKN005=
UMKK 150600Z 19001MPS 9999 OVC040 08/07 Q1031 R24/19//60 NOSIG RMK QFE772/1029=
UMMG 150600Z 35004MPS 6000 -SHRA BKN007CB OVC066 07/06 Q1029 R35/190065 NOSIG=
UMMS 150600Z 04003MPS 9999 BKN006 BKN014CB M01/M01 Q1029 R31/620441 NOSIG RMK QBB190=
UMOO 150600Z 01002MPS 5000 BR OVC004 M02/M03 Q1028 NOSIG RMK QBB140=
UNAA 150600Z 21009MPS CAVOK M03/M14 Q1027 R20/190060 NOSIG RMK QFE748=
UNBB 150600Z 23008G13MPS 9999 -SN SCT043 M08/M13 Q1031 R24/820350 NOSIG RMK QFE750=
UNEE 150600Z 20008MPS 2000 1400NE R23/1400D SHSN DRSN BKN018CB M09/M12 Q1025 R23/891037 NOSIG RMK QFE746=
UNKL 150600Z 25006G11MPS 2900 -SHSN BKN032CB M06/M09 Q1019 R29/810160 NOSIG RMK QFE738=
UNNT 150600Z 23006MPS 2100 1300SE R25/1300D SHSN BKN015 OVC026CB M08/M10 Q1027 R25/490245 R16/490540 NOSIG RMK QFE760/1013=
UNOO 150600Z 27005MPS CAVOK M04/M10 Q1029 R25/820350 NOSIG RMK QFE763=
UNTT 150600Z 24007MPS 5000 -SHSN DRSN SCT010 BKN018CB M07/M09 Q1021 R21/490340 NOSIG RMK QFE751=
URKA 150600Z 08007MPS 9999 BKN010 OVC/// 03/02 Q1017 R04/010070 NOSIG RMK QFE759/1012=
URKK 150600Z 06007MPS 9999 SCT/// OVC046 03/00 Q1018 R05R/CLRD70 NOSIG RMK QFE760=
URMG 150600Z 11002MPS 080V150 9999 BKN030 06/04 Q1019 R08/190060 NOSIG RMK QFE749/0999=
URML 150600Z 17010MPS 9999 SCT010 OVC026 09/07 Q1021 R14/01//70 TEMPO 14011G16MPS RMK MT OBSC QFE766/1021=
URMM 150600Z 11005MPS 7000 -SNRA BKN003 OVC018 01/01 Q1019 R12/290050 TEMPO 1000 SNRA BR RMK MT OBSC QFE736/0981=
URMN 150600Z 00000MPS 0500 FG VV002 03/03 Q1017 R24/210155 NOSIG RMK QBB060 MT OBSC OBST OBSC QFE726=
URMO 150600Z VRB01MPS 8000 BKN021 04/03 Q1017 R09/010070 NOSIG RMK QFE719/0959=
URMT 150600Z 10009MPS 1500 1000W R07/1000N SG BR OVC002 M01/M01 Q1019 R07/190060 NOSIG RMK QBB060 OBST OBSC QFE724=
URRP 150600Z 08008MPS CAVOK M03/M06 Q1027 R05/310060 TEMPO 10010G17MPS RMK QFE765/1021=
URSS 150600Z 01004MPS 9999 -SHRA OVC040CB 09/08 Q1015 R02/290055 R06/290055 NOSIG RMK R06/36003MPS MT OBSC QFE760=
URWA 150600Z 10009MPS CAVOK 00/M05 Q1030 R09/010070 NOSIG RMK QFE775/1033=
URWI 150600Z 09006MPS 9999 SCT006 M05/M06 Q1026 TEMPO 09009G15MPS 2000 BR BKN003=
URWW 150600Z 08009MPS CAVOK M06/M14 Q1033 R06/010070 NOSIG=
USCC 150600Z 26005MPS CAVOK M01/M20 Q1035 R27/250055 NOSIG RMK QFE755=
USCM 150600Z 15001MPS 9999 NSC M01/M19 Q1036 R36/090060 NOSIG RMK QFE738=
USHH 150600Z 32001MPS 9999 -SHSN BKN018CB M05/M06 Q1025 R24/490250 TEMPO 0800 +SHSN BKN003CB RMK QFE765=
USNN 150600Z 31003MPS 6000 -SHSN SCT012 BKN027CB M03/M05 Q1019 R21/421041 NOSIG RMK QFE760=
USPP 150600Z 23004MPS 9999 BKN028 M04/M12 Q1035 R21/090060 NOSIG RMK QFE765=
USRR 150600Z 33005MPS 300V360 6000 -SHSN SCT013CB SCT034 M04/M05 Q1022 R25/420545 NOSIG RMK OBST OBSC QFE761=
USSS 150600Z 25006MPS 9999 SCT033 M05/M13 Q1033 R26R/150050 NOSIG RMK QFE753/1005=
USTR 150600Z 27005MPS CAVOK M02/M10 Q1030 R30/CLRD65 NOSIG RMK QFE762/1017=
UTAA 150600Z 09006KT 060V120 9999 BKN190 OVC200 03/M07 Q1025 R88/70D NOSIG=
UTAK 150600Z 10012KT CAVOK 07/M13 Q1023 R16R/CLRD70 NOSIG=
UTAM 150600Z 11004KT CAVOK 04/M09 Q1030 NOSIG=
UTAT 150600Z 10010KT CAVOK 00/M16 Q1032 R08/CLRD70 NOSIG=
UTAV 150600Z 11004KT CAVOK 04/M05 Q1029 NOSIG=
UTDD 150600Z VRB02MPS 2100 BR FU SCT008 08/05 Q1027 R09/CLRD// TEMPO 1500 BR FU RMK QFE701/0935=
UTDK 150600Z VRB01MPS 9999 OVC020 08/03 Q1028 R01/09//70 RMK QFE713/0951=
UTDL 150600Z 08008MPS 6000 FEW086 08/01 Q1030 R08/CLRD70 NOSIG RMK QFE733/0977=
UTDT 150600Z VRB01MPS 9999 SCT150 10/M02 Q1028 R35/CLRD70 RMK QFE731/0975=
UTFF 150530Z 00000KT 4400 HZ NSC 06/01 Q1031 R18/CLRD70=
UTNN 150530Z 03006KT CAVOK M05/M19 Q1033 R33/CLRD60 NOSIG=
UTNU 150530Z 06008KT CAVOK M02/M17 Q1032 R31/CLRD70 NOSIG=
UTSA 150530Z 07006KT 040V100 2700 BR NSC 04/M00 Q1028 R07/CLRD70 NOSIG=
UTSB 150530Z 07004KT 020V090 CAVOK 04/M03 Q1029 R01/CLRD70 NOSIG=
UTSK 150530Z 08004KT CAVOK 05/M02 Q1028 R16/CLRD70=
UTSS 150530Z 08004KT 050V110 5000 BR NSC 06/02 Q1027 R27/70D NOSIG=
UTST 150530Z VRB02KT CAVOK 07/M05 Q1029 R88/CLRD70 NOSIG=
UTTT 150530Z 00000KT 3000 FU NSC 06/01 Q1031 R08R/CLRD70 NOSIG=
UUBC 150600Z 14003MPS 9999 SCT046 M01/M08 Q1032 R13/CLRD60 NOSIG RMK QFE755/1007=
UUBP 150600Z 10004MPS 9999 SCT030CB M01/M07 Q1030 R16/490235 NOSIG RMK QFE754/1005=
UUBW 150600Z 12003MPS 9999 BKN049 M00/M07 Q1034 R30/010060 NOSIG=
UUDD 150600Z 17004MPS 9999 BKN047 M00/M09 Q1033 R88/190095 NOSIG=
UUDL 150600Z 17002MPS CAVOK M01/M04 Q1034 R23/010060 NOSIG RMK QFE767=
UUEE 150600Z 15003MPS CAVOK 00/M07 Q1032 R24C/520145 R24L/520151 NOSIG=
UUMO 150600Z 15002MPS 130V200 9999 BKN046 M00/M09 Q1033 R08/190055 NOSIG RMK QFE759/1013=
UUOB 150600Z 09004MPS 9999 BKN040 M02/M09 Q1030 R11/010060 NOSIG=
UUOK 150600Z 12003MPS CAVOK M03/M10 Q1031 R12/CLRD65 NOSIG RMK QFE755/1007=
UUOL 150600Z 11003MPS CAVOK M07/M11 Q1035 R15/090060 NOSIG=
UUOO 150600Z 09004MPS CAVOK M06/M13 Q1034 R12/090070 NOSIG RMK QFE761=
UUWW 150600Z 13003MPS 9999 BKN048 M01/M09 Q1033 R24/510147 NOSIG=
UUYY 150600Z 21002MPS 9000 SCT007 BKN020CB M03/M04 Q1030 R18/450235 NOSIG RMK QFE764/1018=
UWGG 150600Z 18004MPS CAVOK M05/M12 Q1038 R18L/090060 NOSIG=
UWKD 150600Z 22003MPS CAVOK M07/M13 Q1039 R11/CLRD60 NOSIG RMK QFE769/1026=
UWKE 150600Z 21003MPS CAVOK M10/M12 Q1039 R21/090070 NOSIG RMK QFE761/1015=
UWKS 150600Z 23004MPS CAVOK M07/M13 Q1038 R24/010060 NOSIG RMK QFE764=
UWLW 150600Z 20001MPS 8000 NSC M08/M11 Q1041 R20/CLRD60 NOSIG RMK QFE775=
UWOO 150600Z 18002MPS CAVOK M09/M13 Q1041 R26/CLRD60 NOSIG RMK QFE770/1027=
UWOR 150600Z 25001MPS CAVOK M04/M12 Q1038 R25/810055 NOSIG RMK QFE755/1006=
UWSS 150600Z 09004MPS CAVOK M08/M12 Q1038 R12/010095 NOSIG RMK QFE767=
UWUU 150600Z VRB01MPS CAVOK M09/M15 Q1040 R14R/0///60 NOSIG RMK QFE770/1027=
UWWW 150600Z VRB01MPS 5000 BR NSC M10/M11 Q1041 R15/CLRD60 NOSIG RMK QFE769/1025=
ZMUB 150600Z 23003MPS 170V270 CAVOK M10/M21 Q1027 NOSIG RMK QFE662.2 37=